sensor_id;sensor_type;location;lat;lon;timestamp;pressure;altitude;pressure_sealevel;temperature;humidity
55685;BME280;41883;49.544;8.646;2023-03-26T00:00:51;100022.16;;;7.84;nan
55685;BME280;41883;49.544;8.646;2023-03-26T00:03:18;100017.00;;;7.83;nan
55685;BME280;41883;49.544;8.646;2023-03-26T00:05:44;100016.19;;;7.82;nan
55685;BME280;41883;49.544;8.646;2023-03-26T00:08:12;100021.59;;;7.81;nan
55685;BME280;41883;49.544;8.646;2023-03-26T00:10:38;100014.69;;;7.80;nan
55685;BME280;41883;49.544;8.646;2023-03-26T00:13:04;100014.81;;;7.78;nan
55685;BME280;41883;49.544;8.646;2023-03-26T00:15:30;100015.13;;;7.75;nan
55685;BME280;41883;49.544;8.646;2023-03-26T00:17:55;100022.47;;;7.72;nan
55685;BME280;41883;49.544;8.646;2023-03-26T00:20:20;100019.31;;;7.68;nan
55685;BME280;41883;49.544;8.646;2023-03-26T00:22:45;100020.25;;;7.67;nan
55685;BME280;41883;49.544;8.646;2023-03-26T00:25:11;100014.47;;;7.63;nan
55685;BME280;41883;49.544;8.646;2023-03-26T00:27:37;100014.78;;;7.60;nan
55685;BME280;41883;49.544;8.646;2023-03-26T00:30:03;100007.16;;;7.57;nan
55685;BME280;41883;49.544;8.646;2023-03-26T00:32:29;100010.22;;;7.53;nan
55685;BME280;41883;49.544;8.646;2023-03-26T00:34:54;100014.34;;;7.55;nan
55685;BME280;41883;49.544;8.646;2023-03-26T00:37:20;100013.84;;;7.52;nan
55685;BME280;41883;49.544;8.646;2023-03-26T00:39:53;100016.59;;;7.50;nan
55685;BME280;41883;49.544;8.646;2023-03-26T00:42:23;100014.69;;;7.42;nan
55685;BME280;41883;49.544;8.646;2023-03-26T00:44:48;100007.09;;;7.39;nan
55685;BME280;41883;49.544;8.646;2023-03-26T00:47:18;100004.47;;;7.39;nan
55685;BME280;41883;49.544;8.646;2023-03-26T00:49:43;100005.16;;;7.41;nan
55685;BME280;41883;49.544;8.646;2023-03-26T00:52:10;99998.91;;;7.42;nan
55685;BME280;41883;49.544;8.646;2023-03-26T00:54:35;99996.84;;;7.46;nan
55685;BME280;41883;49.544;8.646;2023-03-26T00:57:01;99999.47;;;7.46;nan
55685;BME280;41883;49.544;8.646;2023-03-26T00:59:26;99994.72;;;7.50;nan
55685;BME280;41883;49.544;8.646;2023-03-26T01:01:54;99986.41;;;7.54;nan
55685;BME280;41883;49.544;8.646;2023-03-26T01:06:52;99984.16;;;7.59;nan
55685;BME280;41883;49.544;8.646;2023-03-26T01:09:18;99982.09;;;7.63;nan
55685;BME280;41883;49.544;8.646;2023-03-26T01:11:45;99965.31;;;7.64;nan
55685;BME280;41883;49.544;8.646;2023-03-26T01:16:49;99958.91;;;7.66;nan
55685;BME280;41883;49.544;8.646;2023-03-26T01:22:02;99954.78;;;7.64;nan
55685;BME280;41883;49.544;8.646;2023-03-26T01:24:29;99954.25;;;7.60;nan
55685;BME280;41883;49.544;8.646;2023-03-26T01:37:24;99948.06;;;7.52;nan
55685;BME280;41883;49.544;8.646;2023-03-26T01:39:55;99941.00;;;7.52;nan
55685;BME280;41883;49.544;8.646;2023-03-26T01:42:26;99933.78;;;7.54;nan
55685;BME280;41883;49.544;8.646;2023-03-26T01:45:16;99931.16;;;7.54;nan
55685;BME280;41883;49.544;8.646;2023-03-26T01:47:40;99922.28;;;7.55;nan
55685;BME280;41883;49.544;8.646;2023-03-26T01:50:06;99910.50;;;7.59;nan
55685;BME280;41883;49.544;8.646;2023-03-26T01:52:32;99905.22;;;7.59;nan
55685;BME280;41883;49.544;8.646;2023-03-26T01:54:57;99903.41;;;7.60;nan
55685;BME280;41883;49.544;8.646;2023-03-26T02:03:00;99896.88;;;7.64;nan
55685;BME280;41883;49.544;8.646;2023-03-26T02:12:45;99869.16;;;7.70;nan
55685;BME280;41883;49.544;8.646;2023-03-26T02:15:11;99873.44;;;7.71;nan
55685;BME280;41883;49.544;8.646;2023-03-26T02:17:36;99867.19;;;7.72;nan
55685;BME280;41883;49.544;8.646;2023-03-26T02:20:05;99866.38;;;7.71;nan
55685;BME280;41883;49.544;8.646;2023-03-26T02:22:30;99853.34;;;7.70;nan
55685;BME280;41883;49.544;8.646;2023-03-26T02:24:55;99854.22;;;7.70;nan
55685;BME280;41883;49.544;8.646;2023-03-26T02:27:20;99848.25;;;7.68;nan
55685;BME280;41883;49.544;8.646;2023-03-26T02:29:45;99850.06;;;7.68;nan
55685;BME280;41883;49.544;8.646;2023-03-26T02:32:11;99840.81;;;7.63;nan
55685;BME280;41883;49.544;8.646;2023-03-26T02:34:37;99837.63;;;7.60;nan
55685;BME280;41883;49.544;8.646;2023-03-26T02:37:02;99835.00;;;7.60;nan
55685;BME280;41883;49.544;8.646;2023-03-26T02:39:28;99816.31;;;7.63;nan
55685;BME280;41883;49.544;8.646;2023-03-26T02:41:53;99816.81;;;7.66;nan
55685;BME280;41883;49.544;8.646;2023-03-26T02:44:18;99809.59;;;7.69;nan
55685;BME280;41883;49.544;8.646;2023-03-26T02:46:43;99808.34;;;7.73;nan
55685;BME280;41883;49.544;8.646;2023-03-26T02:49:09;99802.63;;;7.77;nan
55685;BME280;41883;49.544;8.646;2023-03-26T02:51:34;99805.25;;;7.77;nan
55685;BME280;41883;49.544;8.646;2023-03-26T02:54:00;99805.63;;;7.82;nan
55685;BME280;41883;49.544;8.646;2023-03-26T02:56:25;99792.28;;;7.84;nan
55685;BME280;41883;49.544;8.646;2023-03-26T02:58:50;99797.28;;;7.87;nan
55685;BME280;41883;49.544;8.646;2023-03-26T03:01:16;99792.97;;;7.86;nan
55685;BME280;41883;49.544;8.646;2023-03-26T03:03:42;99788.56;;;7.86;nan
55685;BME280;41883;49.544;8.646;2023-03-26T03:06:07;99783.94;;;7.88;nan
55685;BME280;41883;49.544;8.646;2023-03-26T03:08:33;99776.22;;;7.87;nan
55685;BME280;41883;49.544;8.646;2023-03-26T03:10:58;99771.63;;;7.89;nan
55685;BME280;41883;49.544;8.646;2023-03-26T03:13:24;99762.88;;;7.88;nan
55685;BME280;41883;49.544;8.646;2023-03-26T03:15:49;99759.28;;;7.90;nan
55685;BME280;41883;49.544;8.646;2023-03-26T03:18:14;99762.59;;;7.92;nan
55685;BME280;41883;49.544;8.646;2023-03-26T03:20:39;99758.16;;;7.92;nan
55685;BME280;41883;49.544;8.646;2023-03-26T03:23:05;99754.69;;;7.92;nan
55685;BME280;41883;49.544;8.646;2023-03-26T03:25:30;99752.88;;;7.92;nan
55685;BME280;41883;49.544;8.646;2023-03-26T03:27:56;99748.44;;;7.93;nan
55685;BME280;41883;49.544;8.646;2023-03-26T03:30:22;99742.22;;;7.94;nan
55685;BME280;41883;49.544;8.646;2023-03-26T03:32:48;99741.09;;;7.96;nan
55685;BME280;41883;49.544;8.646;2023-03-26T03:35:13;99740.75;;;7.99;nan
55685;BME280;41883;49.544;8.646;2023-03-26T03:37:38;99744.34;;;7.98;nan
55685;BME280;41883;49.544;8.646;2023-03-26T03:40:03;99741.72;;;7.98;nan
55685;BME280;41883;49.544;8.646;2023-03-26T03:42:32;99741.72;;;7.98;nan
55685;BME280;41883;49.544;8.646;2023-03-26T03:44:57;99733.69;;;8.00;nan
55685;BME280;41883;49.544;8.646;2023-03-26T03:47:22;99730.09;;;8.01;nan
55685;BME280;41883;49.544;8.646;2023-03-26T03:49:47;99723.16;;;8.00;nan
55685;BME280;41883;49.544;8.646;2023-03-26T03:52:13;99720.53;;;8.00;nan
55685;BME280;41883;49.544;8.646;2023-03-26T03:54:38;99723.16;;;8.00;nan
55685;BME280;41883;49.544;8.646;2023-03-26T03:57:03;99718.09;;;8.06;nan
55685;BME280;41883;49.544;8.646;2023-03-26T03:59:28;99712.69;;;8.08;nan
55685;BME280;41883;49.544;8.646;2023-03-26T04:01:53;99706.28;;;8.11;nan
55685;BME280;41883;49.544;8.646;2023-03-26T04:04:19;99704.16;;;8.14;nan
55685;BME280;41883;49.544;8.646;2023-03-26T04:06:46;99699.69;;;8.15;nan
55685;BME280;41883;49.544;8.646;2023-03-26T04:09:11;99696.09;;;8.16;nan
55685;BME280;41883;49.544;8.646;2023-03-26T04:11:36;99683.59;;;8.18;nan
55685;BME280;41883;49.544;8.646;2023-03-26T04:14:01;99689.38;;;8.21;nan
55685;BME280;41883;49.544;8.646;2023-03-26T04:16:27;99678.69;;;8.23;nan
55685;BME280;41883;49.544;8.646;2023-03-26T04:18:52;99670.31;;;8.27;nan
55685;BME280;41883;49.544;8.646;2023-03-26T04:21:17;99665.06;;;8.27;nan
55685;BME280;41883;49.544;8.646;2023-03-26T04:23:43;99657.16;;;8.27;nan
55685;BME280;41883;49.544;8.646;2023-03-26T04:26:10;99652.22;;;8.33;nan
55685;BME280;41883;49.544;8.646;2023-03-26T04:28:48;99636.25;;;8.34;nan
55685;BME280;41883;49.544;8.646;2023-03-26T04:31:15;99634.28;;;8.36;nan
55685;BME280;41883;49.544;8.646;2023-03-26T04:33:42;99626.22;;;8.38;nan
55685;BME280;41883;49.544;8.646;2023-03-26T04:36:10;99635.94;;;8.37;nan
55685;BME280;41883;49.544;8.646;2023-03-26T04:38:45;99625.22;;;8.39;nan
55685;BME280;41883;49.544;8.646;2023-03-26T04:41:13;99622.59;;;8.39;nan
55685;BME280;41883;49.544;8.646;2023-03-26T04:43:39;99623.28;;;8.41;nan
55685;BME280;41883;49.544;8.646;2023-03-26T04:46:11;99611.13;;;8.40;nan
55685;BME280;41883;49.544;8.646;2023-03-26T04:48:36;99605.84;;;8.40;nan
55685;BME280;41883;49.544;8.646;2023-03-26T04:51:04;99593.34;;;8.42;nan
55685;BME280;41883;49.544;8.646;2023-03-26T04:53:43;99587.75;;;8.45;nan
55685;BME280;41883;49.544;8.646;2023-03-26T04:56:16;99585.13;;;8.45;nan
55685;BME280;41883;49.544;8.646;2023-03-26T04:58:44;99584.13;;;8.46;nan
55685;BME280;41883;49.544;8.646;2023-03-26T05:01:11;99578.69;;;8.47;nan
55685;BME280;41883;49.544;8.646;2023-03-26T05:03:37;99575.06;;;8.48;nan
55685;BME280;41883;49.544;8.646;2023-03-26T05:06:05;99571.63;;;8.48;nan
55685;BME280;41883;49.544;8.646;2023-03-26T05:08:30;99572.63;;;8.47;nan
55685;BME280;41883;49.544;8.646;2023-03-26T05:10:55;99568.50;;;8.44;nan
55685;BME280;41883;49.544;8.646;2023-03-26T05:13:21;99565.53;;;8.47;nan
55685;BME280;41883;49.544;8.646;2023-03-26T05:15:47;99554.00;;;8.48;nan
55685;BME280;41883;49.544;8.646;2023-03-26T05:18:12;99547.41;;;8.53;nan
55685;BME280;41883;49.544;8.646;2023-03-26T05:20:37;99537.41;;;8.56;nan
55685;BME280;41883;49.544;8.646;2023-03-26T05:23:02;99539.03;;;8.57;nan
55685;BME280;41883;49.544;8.646;2023-03-26T05:25:28;99545.97;;;8.58;nan
55685;BME280;41883;49.544;8.646;2023-03-26T05:27:53;99532.78;;;8.58;nan
55685;BME280;41883;49.544;8.646;2023-03-26T05:30:19;99536.91;;;8.61;nan
55685;BME280;41883;49.544;8.646;2023-03-26T05:32:45;99531.13;;;8.57;nan
55685;BME280;41883;49.544;8.646;2023-03-26T05:35:12;99532.44;;;8.53;nan
55685;BME280;41883;49.544;8.646;2023-03-26T05:37:40;99530.47;;;8.47;nan
55685;BME280;41883;49.544;8.646;2023-03-26T05:40:09;99520.56;;;8.41;nan
55685;BME280;41883;49.544;8.646;2023-03-26T05:42:36;99521.69;;;8.38;nan
55685;BME280;41883;49.544;8.646;2023-03-26T05:45:02;99514.78;;;8.37;nan
55685;BME280;41883;49.544;8.646;2023-03-26T05:47:27;99510.47;;;8.36;nan
55685;BME280;41883;49.544;8.646;2023-03-26T05:49:52;99510.19;;;8.39;nan
55685;BME280;41883;49.544;8.646;2023-03-26T05:52:20;99503.94;;;8.40;nan
55685;BME280;41883;49.544;8.646;2023-03-26T05:54:46;99492.59;;;8.40;nan
55685;BME280;41883;49.544;8.646;2023-03-26T05:57:11;99486.31;;;8.41;nan
55685;BME280;41883;49.544;8.646;2023-03-26T05:59:36;99487.44;;;8.38;nan
55685;BME280;41883;49.544;8.646;2023-03-26T06:02:01;99472.13;;;8.34;nan
55685;BME280;41883;49.544;8.646;2023-03-26T06:04:27;99479.88;;;8.35;nan
55685;BME280;41883;49.544;8.646;2023-03-26T06:06:52;99476.09;;;8.29;nan
55685;BME280;41883;49.544;8.646;2023-03-26T06:09:18;99474.91;;;8.24;nan
55685;BME280;41883;49.544;8.646;2023-03-26T06:11:43;99466.03;;;8.25;nan
55685;BME280;41883;49.544;8.646;2023-03-26T06:14:08;99461.41;;;8.27;nan
55685;BME280;41883;49.544;8.646;2023-03-26T06:16:34;99460.78;;;8.25;nan
55685;BME280;41883;49.544;8.646;2023-03-26T06:18:59;99456.47;;;8.24;nan
55685;BME280;41883;49.544;8.646;2023-03-26T06:21:24;99454.19;;;8.21;nan
55685;BME280;41883;49.544;8.646;2023-03-26T06:23:50;99453.34;;;8.20;nan
55685;BME280;41883;49.544;8.646;2023-03-26T06:26:15;99439.84;;;8.23;nan
55685;BME280;41883;49.544;8.646;2023-03-26T06:28:40;99440.84;;;8.22;nan
55685;BME280;41883;49.544;8.646;2023-03-26T06:31:06;99425.06;;;8.22;nan
55685;BME280;41883;49.544;8.646;2023-03-26T06:33:31;99424.06;;;8.23;nan
55685;BME280;41883;49.544;8.646;2023-03-26T06:35:57;99416.97;;;8.24;nan
55685;BME280;41883;49.544;8.646;2023-03-26T06:38:22;99422.25;;;8.24;nan
55685;BME280;41883;49.544;8.646;2023-03-26T06:40:47;99421.09;;;8.26;nan
55685;BME280;41883;49.544;8.646;2023-03-26T06:43:12;99420.13;;;8.27;nan
55685;BME280;41883;49.544;8.646;2023-03-26T06:45:38;99415.81;;;8.26;nan
55685;BME280;41883;49.544;8.646;2023-03-26T06:48:03;99409.25;;;8.30;nan
55685;BME280;41883;49.544;8.646;2023-03-26T06:50:28;99404.13;;;8.29;nan
55685;BME280;41883;49.544;8.646;2023-03-26T06:52:56;99400.84;;;8.35;nan
55685;BME280;41883;49.544;8.646;2023-03-26T06:55:21;99393.31;;;8.40;nan
55685;BME280;41883;49.544;8.646;2023-03-26T06:57:48;99389.16;;;8.46;nan
55685;BME280;41883;49.544;8.646;2023-03-26T07:00:13;99397.25;;;8.53;nan
55685;BME280;41883;49.544;8.646;2023-03-26T07:02:38;99389.16;;;8.62;nan
55685;BME280;41883;49.544;8.646;2023-03-26T07:05:04;99391.47;;;8.65;nan
55685;BME280;41883;49.544;8.646;2023-03-26T07:07:29;99385.34;;;8.65;nan
55685;BME280;41883;49.544;8.646;2023-03-26T07:09:54;99384.22;;;8.59;nan
55685;BME280;41883;49.544;8.646;2023-03-26T07:12:19;99385.72;;;8.54;nan
55685;BME280;41883;49.544;8.646;2023-03-26T07:14:45;99378.97;;;8.51;nan
55685;BME280;41883;49.544;8.646;2023-03-26T07:17:10;99368.75;;;8.48;nan
55685;BME280;41883;49.544;8.646;2023-03-26T07:19:35;99366.13;;;8.48;nan
55685;BME280;41883;49.544;8.646;2023-03-26T07:22:00;99362.19;;;8.44;nan
55685;BME280;41883;49.544;8.646;2023-03-26T07:24:25;99357.09;;;8.42;nan
55685;BME280;41883;49.544;8.646;2023-03-26T07:29:44;99338.81;;;8.41;nan
55685;BME280;41883;49.544;8.646;2023-03-26T07:32:17;99344.38;;;8.38;nan
55685;BME280;41883;49.544;8.646;2023-03-26T07:34:48;99347.00;;;8.38;nan
55685;BME280;41883;49.544;8.646;2023-03-26T07:37:25;99348.38;;;8.42;nan
55685;BME280;41883;49.544;8.646;2023-03-26T07:42:49;99341.44;;;8.41;nan
55685;BME280;41883;49.544;8.646;2023-03-26T07:45:23;99337.81;;;8.42;nan
55685;BME280;41883;49.544;8.646;2023-03-26T07:47:51;99328.41;;;8.47;nan
55685;BME280;41883;49.544;8.646;2023-03-26T07:50:19;99328.56;;;8.54;nan
55685;BME280;41883;49.544;8.646;2023-03-26T07:52:45;99329.56;;;8.61;nan
55685;BME280;41883;49.544;8.646;2023-03-26T07:55:11;99335.28;;;8.73;nan
55685;BME280;41883;49.544;8.646;2023-03-26T07:57:47;99332.63;;;8.81;nan
55685;BME280;41883;49.544;8.646;2023-03-26T08:00:16;99324.19;;;8.86;nan
55685;BME280;41883;49.544;8.646;2023-03-26T08:02:59;99329.47;;;8.86;nan
55685;BME280;41883;49.544;8.646;2023-03-26T08:05:37;99322.25;;;8.80;nan
55685;BME280;41883;49.544;8.646;2023-03-26T08:10:44;99332.50;;;8.66;nan
55685;BME280;41883;49.544;8.646;2023-03-26T08:15:58;99339.94;;;8.55;nan
55685;BME280;41883;49.544;8.646;2023-03-26T08:21:19;99351.00;;;8.42;nan
55685;BME280;41883;49.544;8.646;2023-03-26T08:23:56;99352.28;;;8.38;nan
55685;BME280;41883;49.544;8.646;2023-03-26T08:31:32;99372.22;;;8.16;nan
55685;BME280;41883;49.544;8.646;2023-03-26T08:33:58;99362.19;;;8.11;nan
55685;BME280;41883;49.544;8.646;2023-03-26T08:36:23;99369.91;;;8.04;nan
55685;BME280;41883;49.544;8.646;2023-03-26T08:38:49;99360.53;;;7.94;nan
55685;BME280;41883;49.544;8.646;2023-03-26T08:41:22;99355.56;;;7.91;nan
55685;BME280;41883;49.544;8.646;2023-03-26T08:52:00;99321.38;;;7.82;nan
55685;BME280;41883;49.544;8.646;2023-03-26T08:57:35;99323.16;;;7.90;nan
55685;BME280;41883;49.544;8.646;2023-03-26T09:03:01;99323.66;;;8.10;nan
55685;BME280;41883;49.544;8.646;2023-03-26T09:14:04;99307.06;;;8.01;nan
55685;BME280;41883;49.544;8.646;2023-03-26T09:25:02;99298.44;;;8.57;nan
55685;BME280;41883;49.544;8.646;2023-03-26T09:37:24;99254.84;;;10.83;nan
55685;BME280;41883;49.544;8.646;2023-03-26T09:58:20;99239.69;;;10.92;nan
55685;BME280;41883;49.544;8.646;2023-03-26T10:03:37;99239.59;;;11.21;nan
55685;BME280;41883;49.544;8.646;2023-03-26T10:06:18;99225.75;;;11.19;nan
55685;BME280;41883;49.544;8.646;2023-03-26T10:08:49;99234.47;;;11.56;nan
55685;BME280;41883;49.544;8.646;2023-03-26T10:11:19;99235.38;;;12.20;nan
55685;BME280;41883;49.544;8.646;2023-03-26T10:14:02;99223.94;;;12.95;nan
55685;BME280;41883;49.544;8.646;2023-03-26T10:19:18;99222.50;;;15.81;nan
55685;BME280;41883;49.544;8.646;2023-03-26T10:24:37;99214.16;;;18.38;nan
55685;BME280;41883;49.544;8.646;2023-03-26T10:32:15;99212.44;;;19.58;nan
55685;BME280;41883;49.544;8.646;2023-03-26T10:34:54;99033.53;;;18.69;nan
55685;BME280;41883;49.544;8.646;2023-03-26T10:39:57;99036.56;;;18.15;nan
55685;BME280;41883;49.544;8.646;2023-03-26T10:46:11;99039.09;;;19.30;nan
55685;BME280;41883;49.544;8.646;2023-03-26T10:55:40;99211.28;;;14.51;nan
55685;BME280;41883;49.544;8.646;2023-03-26T10:58:12;99219.41;;;13.64;nan
55685;BME280;41883;49.544;8.646;2023-03-26T11:00:46;99221.91;;;12.98;nan
55685;BME280;41883;49.544;8.646;2023-03-26T11:08:32;99206.59;;;11.39;nan
55685;BME280;41883;49.544;8.646;2023-03-26T11:11:04;99215.84;;;11.07;nan
55685;BME280;41883;49.544;8.646;2023-03-26T11:16:24;99209.75;;;10.91;nan
55685;BME280;41883;49.544;8.646;2023-03-26T11:34:07;99202.31;;;18.22;nan
55685;BME280;41883;49.544;8.646;2023-03-26T11:41:26;99186.03;;;18.12;nan
55685;BME280;41883;49.544;8.646;2023-03-26T11:43:59;98982.47;;;17.61;nan
55685;BME280;41883;49.544;8.646;2023-03-26T12:01:17;99171.91;;;14.21;nan
55685;BME280;41883;49.544;8.646;2023-03-26T12:03:56;99184.63;;;13.66;nan
55685;BME280;41883;49.544;8.646;2023-03-26T12:06:26;99181.28;;;12.97;nan
55685;BME280;41883;49.544;8.646;2023-03-26T12:08:53;99188.00;;;12.38;nan
55685;BME280;41883;49.544;8.646;2023-03-26T12:11:19;99207.50;;;11.96;nan
55685;BME280;41883;49.544;8.646;2023-03-26T12:13:50;99201.50;;;11.59;nan
55685;BME280;41883;49.544;8.646;2023-03-26T12:16:20;99203.19;;;11.23;nan
55685;BME280;41883;49.544;8.646;2023-03-26T12:18:46;99213.16;;;11.21;nan
55685;BME280;41883;49.544;8.646;2023-03-26T12:21:20;99204.97;;;11.38;nan
55685;BME280;41883;49.544;8.646;2023-03-26T12:23:52;99198.38;;;11.55;nan
55685;BME280;41883;49.544;8.646;2023-03-26T12:26:19;99192.88;;;11.78;nan
55685;BME280;41883;49.544;8.646;2023-03-26T12:28:49;99188.88;;;12.17;nan
55685;BME280;41883;49.544;8.646;2023-03-26T15:12:17;99089.13;;;12.51;nan
55685;BME280;41883;49.544;8.646;2023-03-26T15:17:31;99100.88;;;12.28;nan
55685;BME280;41883;49.544;8.646;2023-03-26T15:27:56;99102.13;;;11.63;nan
55685;BME280;41883;49.544;8.646;2023-03-26T15:43:15;99131.38;;;11.26;nan
55685;BME280;41883;49.544;8.646;2023-03-26T15:45:43;99139.06;;;11.21;nan
55685;BME280;41883;49.544;8.646;2023-03-26T15:55:53;99138.31;;;11.06;nan
55685;BME280;41883;49.544;8.646;2023-03-26T15:58:24;99135.34;;;10.94;nan
55685;BME280;41883;49.544;8.646;2023-03-26T16:00:53;99143.00;;;10.89;nan
55685;BME280;41883;49.544;8.646;2023-03-26T16:06:10;99158.13;;;10.74;nan
55685;BME280;41883;49.544;8.646;2023-03-26T16:09:02;99157.88;;;10.69;nan
55685;BME280;41883;49.544;8.646;2023-03-26T16:14:10;99170.09;;;10.55;nan
55685;BME280;41883;49.544;8.646;2023-03-26T16:16:48;99183.31;;;10.55;nan
55685;BME280;41883;49.544;8.646;2023-03-26T16:21:53;99184.69;;;10.51;nan
55685;BME280;41883;49.544;8.646;2023-03-26T16:24:23;99186.72;;;10.49;nan
55685;BME280;41883;49.544;8.646;2023-03-26T22:06:29;99346.50;;;6.75;nan
55685;BME280;41883;49.544;8.646;2023-03-26T22:08:56;99349.28;;;6.74;nan
55685;BME280;41883;49.544;8.646;2023-03-26T22:11:21;99352.22;;;6.71;nan
55685;BME280;41883;49.544;8.646;2023-03-26T22:13:46;99354.88;;;6.71;nan
55685;BME280;41883;49.544;8.646;2023-03-26T22:16:12;99360.25;;;6.69;nan
55685;BME280;41883;49.544;8.646;2023-03-26T22:18:37;99369.28;;;6.67;nan
55685;BME280;41883;49.544;8.646;2023-03-26T22:21:02;99371.22;;;6.65;nan
55685;BME280;41883;49.544;8.646;2023-03-26T22:23:28;99375.84;;;6.63;nan
55685;BME280;41883;49.544;8.646;2023-03-26T22:26:01;99384.69;;;6.62;nan
55685;BME280;41883;49.544;8.646;2023-03-26T22:28:27;99391.28;;;6.66;nan
55685;BME280;41883;49.544;8.646;2023-03-26T22:30:52;99404.25;;;6.67;nan
55685;BME280;41883;49.544;8.646;2023-03-26T22:33:17;99406.59;;;6.70;nan
55685;BME280;41883;49.544;8.646;2023-03-26T22:35:42;99413.66;;;6.70;nan
55685;BME280;41883;49.544;8.646;2023-03-26T22:38:08;99413.34;;;6.73;nan
55685;BME280;41883;49.544;8.646;2023-03-26T22:40:34;99423.84;;;6.73;nan
55685;BME280;41883;49.544;8.646;2023-03-26T22:42:59;99435.94;;;6.66;nan
55685;BME280;41883;49.544;8.646;2023-03-26T22:45:24;99433.47;;;6.64;nan
55685;BME280;41883;49.544;8.646;2023-03-26T22:47:50;99445.47;;;6.67;nan
55685;BME280;41883;49.544;8.646;2023-03-26T22:50:16;99444.72;;;6.56;nan
55685;BME280;41883;49.544;8.646;2023-03-26T22:52:41;99451.88;;;6.46;nan
55685;BME280;41883;49.544;8.646;2023-03-26T22:55:07;99462.31;;;6.38;nan
55685;BME280;41883;49.544;8.646;2023-03-26T22:57:32;99474.25;;;6.32;nan
55685;BME280;41883;49.544;8.646;2023-03-26T22:59:57;99484.19;;;6.29;nan
55685;BME280;41883;49.544;8.646;2023-03-26T23:02:37;99489.09;;;6.24;nan
55685;BME280;41883;49.544;8.646;2023-03-26T23:05:02;99504.16;;;6.22;nan
55685;BME280;41883;49.544;8.646;2023-03-26T23:07:28;99504.47;;;6.19;nan
55685;BME280;41883;49.544;8.646;2023-03-26T23:09:53;99512.47;;;6.17;nan
55685;BME280;41883;49.544;8.646;2023-03-26T23:12:18;99524.63;;;6.18;nan
55685;BME280;41883;49.544;8.646;2023-03-26T23:14:43;99527.41;;;6.16;nan
55685;BME280;41883;49.544;8.646;2023-03-26T23:17:08;99531.53;;;6.19;nan
55685;BME280;41883;49.544;8.646;2023-03-26T23:19:38;99536.25;;;6.15;nan
55685;BME280;41883;49.544;8.646;2023-03-26T23:22:03;99539.16;;;6.12;nan
55685;BME280;41883;49.544;8.646;2023-03-26T23:24:28;99543.59;;;6.12;nan
55685;BME280;41883;49.544;8.646;2023-03-26T23:26:54;99553.41;;;6.10;nan
55685;BME280;41883;49.544;8.646;2023-03-26T23:29:19;99566.16;;;6.05;nan
55685;BME280;41883;49.544;8.646;2023-03-26T23:31:44;99572.38;;;6.04;nan
55685;BME280;41883;49.544;8.646;2023-03-26T23:34:09;99582.19;;;6.02;nan
55685;BME280;41883;49.544;8.646;2023-03-26T23:36:37;99586.63;;;6.01;nan
55685;BME280;41883;49.544;8.646;2023-03-26T23:39:02;99588.44;;;6.01;nan
55685;BME280;41883;49.544;8.646;2023-03-26T23:41:28;99590.19;;;6.00;nan
55685;BME280;41883;49.544;8.646;2023-03-26T23:43:53;99600.00;;;5.98;nan
55685;BME280;41883;49.544;8.646;2023-03-26T23:46:19;99604.31;;;5.99;nan
55685;BME280;41883;49.544;8.646;2023-03-26T23:48:47;99621.69;;;6.00;nan
55685;BME280;41883;49.544;8.646;2023-03-26T23:51:15;99632.88;;;6.02;nan
55685;BME280;41883;49.544;8.646;2023-03-26T23:53:42;99636.63;;;6.00;nan
55685;BME280;41883;49.544;8.646;2023-03-26T23:56:07;99655.41;;;5.95;nan
55685;BME280;41883;49.544;8.646;2023-03-26T23:58:37;99650.56;;;5.90;nan
